Time;durP1;ratioP1;P1;durP2;ratioP2;P2;SDS_P1;SDS_P2;PMS_P1;PMS_P2;Temp;Humidity;BMP_temperature;BMP_pressure;BME280_temperature;BME280_humidity;BME280_pressure;Samples;Min_cycle;Max_cycle;Signal;HPM_P1;HPM_P2
2022/08/27 00:02:23;;;;;;;9.38;3.72;;;;;;;22.22;53.30;101790.66;5084712;28;20040;-71
2022/08/27 00:04:49;;;;;;;10.80;3.10;;;;;;;21.87;54.28;101788.00;5083854;28;20036;-71
2022/08/27 00:07:15;;;;;;;9.93;3.85;;;;;;;22.07;53.35;101792.63;5087179;28;20483;-70
2022/08/27 00:09:41;;;;;;;11.40;3.97;;;;;;;22.08;53.79;101792.31;5086423;28;20583;-69
2022/08/27 00:12:08;;;;;;;13.95;3.60;;;;;;;21.95;53.79;101787.44;5084093;28;20066;-70
2022/08/27 00:14:35;;;;;;;13.48;3.60;;;;;;;22.10;53.45;101790.13;5091296;28;20496;-70
2022/08/27 00:17:00;;;;;;;10.02;3.55;;;;;;;21.81;54.60;101787.22;5087077;28;20040;-71
2022/08/27 00:19:25;;;;;;;7.07;3.22;;;;;;;21.72;54.32;101786.06;5068243;28;20097;-71
2022/08/27 00:21:51;;;;;;;7.68;3.20;;;;;;;21.84;54.47;101778.44;5067735;28;20414;-73
2022/08/27 00:24:16;;;;;;;8.52;3.55;;;;;;;22.02;53.77;101784.41;5086481;28;20036;-70
2022/08/27 00:26:42;;;;;;;10.07;3.55;;;;;;;21.84;54.53;101780.34;5067536;28;20025;-71
2022/08/27 00:29:07;;;;;;;9.32;3.38;;;;;;;21.57;55.23;101777.91;5084112;28;20404;-71
2022/08/27 00:31:34;;;;;;;8.32;3.10;;;;;;;21.39;55.66;101778.47;5085296;28;20107;-70
2022/08/27 00:33:59;;;;;;;10.65;3.92;;;;;;;21.50;55.16;101769.13;5086128;28;20017;-72
2022/08/27 00:36:25;;;;;;;9.23;3.67;;;;;;;21.55;55.53;101777.34;5087069;28;20043;-69
2022/08/27 00:38:51;;;;;;;5.50;3.28;;;;;;;21.54;55.12;101772.97;5084016;28;20060;-72
2022/08/27 00:41:18;;;;;;;12.63;3.45;;;;;;;21.47;55.60;101774.34;5066404;28;20039;-71
2022/08/27 00:43:48;;;;;;;8.40;3.88;;;;;;;21.51;55.65;101779.00;5085630;28;25461;-70
2022/08/27 00:46:19;;;;;;;9.00;3.50;;;;;;;21.57;54.90;101772.44;5087760;28;20032;-71
2022/08/27 00:48:46;;;;;;;7.55;3.28;;;;;;;21.46;55.51;101768.03;5089293;28;20123;-70
2022/08/27 00:51:12;;;;;;;7.65;3.05;;;;;;;21.53;55.01;101774.06;5095208;28;20067;-71
2022/08/27 00:53:37;;;;;;;7.55;3.35;;;;;;;21.76;54.38;101778.13;5095370;28;20063;-70
2022/08/27 00:56:09;;;;;;;4.82;2.92;;;;;;;21.94;53.94;101776.75;5075880;28;20476;-70
2022/08/27 00:58:37;;;;;;;8.02;3.40;;;;;;;21.93;54.06;101777.88;5074873;28;20032;-70
2022/08/27 01:01:05;;;;;;;9.57;3.13;;;;;;;22.02;53.22;101779.75;5075128;28;20028;-71
2022/08/27 01:03:31;;;;;;;10.77;3.60;;;;;;;21.71;54.25;101783.63;5074498;28;20036;-71
2022/08/27 01:06:00;;;;;;;7.95;3.58;;;;;;;21.95;53.44;101772.94;5074690;28;20060;-71
2022/08/27 01:08:30;;;;;;;6.35;2.92;;;;;;;21.94;53.54;101771.28;5074399;28;20054;-71
2022/08/27 01:10:58;;;;;;;8.30;2.85;;;;;;;21.84;53.80;101772.13;5092773;28;20040;-71
2022/08/27 01:13:26;;;;;;;8.70;3.00;;;;;;;21.90;53.32;101767.47;5095040;28;20132;-71
2022/08/27 01:15:52;;;;;;;6.25;2.75;;;;;;;22.06;52.89;101771.78;5094417;28;20040;-71
2022/08/27 01:18:18;;;;;;;10.30;3.15;;;;;;;22.03;53.24;101778.66;5094659;28;20492;-72
2022/08/27 01:21:15;;;;;;;10.32;2.92;;;;;;;22.20;52.15;101778.31;5094426;28;20122;-70
2022/08/27 01:24:19;;;;;;;14.93;3.25;;;;;;;22.22;52.09;101773.38;5094776;28;20500;-72
2022/08/27 01:26:45;;;;;;;12.00;3.33;;;;;;;21.90;52.75;101781.13;5094407;28;20115;-70
2022/08/27 01:29:12;;;;;;;11.25;3.70;;;;;;;22.04;52.75;101779.47;5094117;28;20034;-71
2022/08/27 01:31:38;;;;;;;11.20;4.15;;;;;;;22.14;52.52;101780.25;5076182;28;20050;-72
2022/08/27 01:34:04;;;;;;;6.68;3.10;;;;;;;21.95;52.79;101784.72;5094964;28;20024;-71
2022/08/27 01:36:30;;;;;;;5.75;3.55;;;;;;;21.77;53.57;101782.53;5094376;28;20036;-70
2022/08/27 01:38:56;;;;;;;7.95;3.45;;;;;;;21.71;53.78;101786.38;5075956;28;20047;-72
2022/08/27 01:41:23;;;;;;;9.50;3.67;;;;;;;21.93;53.52;101786.06;5093918;28;20099;-71
2022/08/27 01:43:49;;;;;;;12.40;3.70;;;;;;;21.77;53.70;101786.09;5093865;28;20052;-70
2022/08/27 01:46:19;;;;;;;13.48;3.50;;;;;;;21.71;53.67;101784.44;5094394;28;20012;-70
2022/08/27 01:48:45;;;;;;;10.80;3.78;;;;;;;21.80;53.12;101788.28;5093899;28;20030;-70
2022/08/27 01:51:10;;;;;;;18.30;5.28;;;;;;;21.95;52.85;101784.72;5093858;28;20036;-71
2022/08/27 01:53:36;;;;;;;9.95;3.60;;;;;;;21.92;52.71;101785.25;5093749;28;20372;-71
2022/08/27 01:56:01;;;;;;;12.90;4.60;;;;;;;21.61;54.17;101787.19;5093629;28;20119;-71
2022/08/27 01:58:29;;;;;;;8.70;4.07;;;;;;;21.63;54.07;101790.47;5093865;28;20045;-70
2022/08/27 02:01:18;;;;;;;7.85;3.88;;;;;;;21.39;54.58;101785.84;5094150;28;20024;-71
2022/08/27 02:03:46;;;;;;;9.57;4.00;;;;;;;21.19;55.36;101789.38;5093687;28;20043;-70
2022/08/27 02:06:12;;;;;;;9.27;4.45;;;;;;;21.21;55.51;101787.19;5093534;28;20027;-71
2022/08/27 02:08:38;;;;;;;10.15;4.03;;;;;;;21.10;55.72;101776.53;5093421;28;20557;-70
2022/08/27 02:11:04;;;;;;;11.70;4.20;;;;;;;21.37;54.80;101783.38;5093246;28;20028;-70
2022/08/27 02:13:29;;;;;;;8.95;4.55;;;;;;;21.21;55.38;101779.00;5093210;28;20086;-71
2022/08/27 02:15:55;;;;;;;11.75;4.70;;;;;;;21.16;55.67;101780.91;5093295;28;20105;-70
2022/08/27 02:18:20;;;;;;;11.50;4.53;;;;;;;21.25;55.24;101776.53;5093294;28;20036;-71
2022/08/27 02:20:47;;;;;;;14.82;4.72;;;;;;;21.26;55.08;101781.75;5092685;28;20032;-71
2022/08/27 02:23:13;;;;;;;9.35;4.28;;;;;;;21.38;55.07;101776.00;5093032;28;20062;-71
2022/08/27 02:25:39;;;;;;;9.88;5.70;;;;;;;21.36;55.05;101770.00;5093214;28;20371;-71
2022/08/27 02:28:07;;;;;;;8.88;3.92;;;;;;;21.28;55.22;101760.44;5075834;28;20021;-70
2022/08/27 02:30:34;;;;;;;7.78;4.90;;;;;;;21.27;55.32;101769.69;5092942;28;20046;-72
2022/08/27 02:33:01;;;;;;;14.05;6.32;;;;;;;21.18;55.46;101771.34;5093143;28;20578;-72
2022/08/27 02:35:28;;;;;;;11.38;4.82;;;;;;;21.26;55.56;101770.81;5093064;28;20044;-72
2022/08/27 02:37:53;;;;;;;20.63;4.72;;;;;;;21.39;54.81;101770.25;5074723;28;20044;-71
2022/08/27 02:40:21;;;;;;;12.88;4.93;;;;;;;21.29;55.03;101772.16;5093539;28;20603;-71
2022/08/27 02:42:46;;;;;;;6.95;4.85;;;;;;;21.37;54.74;101769.72;5092919;28;20043;-70
2022/08/27 02:45:13;;;;;;;11.02;6.30;;;;;;;21.33;55.01;101763.13;5092433;28;20040;-71
2022/08/27 02:47:39;;;;;;;9.35;4.88;;;;;;;21.33;54.81;101762.31;5092536;28;20049;-71
2022/08/27 02:50:07;;;;;;;9.27;5.75;;;;;;;21.36;54.58;101759.88;5092843;28;20032;-72
2022/08/27 02:52:32;;;;;;;11.15;5.82;;;;;;;21.20;55.46;101762.88;5092814;28;20027;-71
2022/08/27 02:54:58;;;;;;;8.95;5.32;;;;;;;21.22;55.46;101763.41;5093025;28;20047;-70
2022/08/27 02:57:24;;;;;;;9.43;5.35;;;;;;;21.20;55.69;101758.22;5092737;28;20024;-70
2022/08/27 02:59:50;;;;;;;9.55;5.43;;;;;;;21.22;55.11;101749.75;5092416;28;20040;-71
2022/08/27 03:02:17;;;;;;;13.85;6.63;;;;;;;20.98;56.14;101755.72;5092501;28;20024;-72
2022/08/27 03:04:42;;;;;;;12.88;5.95;;;;;;;21.23;55.52;101756.88;5092354;28;20051;-70
2022/08/27 03:07:08;;;;;;;8.85;5.20;;;;;;;21.23;55.69;101754.94;5092855;28;20016;-71
2022/08/27 03:09:33;;;;;;;9.73;4.90;;;;;;;21.31;55.57;101759.84;5092263;28;20043;-72
2022/08/27 03:12:00;;;;;;;15.48;5.75;;;;;;;21.28;55.23;101754.13;5092627;28;20059;-70
2022/08/27 03:14:25;;;;;;;7.53;4.82;;;;;;;21.07;56.04;101758.75;5091950;28;20036;-70
2022/08/27 03:16:51;;;;;;;12.18;6.07;;;;;;;20.83;56.56;101754.88;5078823;28;20047;-71
2022/08/27 03:19:16;;;;;;;9.48;5.55;;;;;;;21.07;56.04;101761.50;5072109;28;20037;-72
2022/08/27 03:21:42;;;;;;;13.35;6.28;;;;;;;21.13;55.36;101752.19;5091042;28;20044;-72
2022/08/27 03:24:08;;;;;;;12.80;5.63;;;;;;;21.04;55.97;101762.03;5091816;28;20032;-71
2022/08/27 03:26:33;;;;;;;15.27;5.88;;;;;;;21.20;55.62;101755.50;5091909;28;20572;-70
2022/08/27 03:28:59;;;;;;;10.07;5.20;;;;;;;21.20;55.71;101760.13;5091854;28;20028;-71
2022/08/27 03:31:26;;;;;;;11.50;6.47;;;;;;;21.33;54.96;101759.56;5090857;28;20035;-72
2022/08/27 03:33:58;;;;;;;18.05;7.15;;;;;;;21.50;54.58;101762.88;5092452;28;20020;-71
2022/08/27 03:36:26;;;;;;;8.63;5.03;;;;;;;21.42;54.96;101758.78;5091662;28;20036;-70
2022/08/27 03:38:52;;;;;;;11.18;4.75;;;;;;;21.05;55.90;101752.75;5091460;28;20120;-73
2022/08/27 03:41:18;;;;;;;10.90;5.90;;;;;;;21.25;55.42;101751.91;5091438;28;20047;-71
2022/08/27 03:43:44;;;;;;;11.10;5.40;;;;;;;21.23;55.06;101751.41;5091339;28;20040;-72
2022/08/27 03:46:10;;;;;;;13.32;5.28;;;;;;;21.41;55.08;101743.44;5091700;28;20196;-72
2022/08/27 03:48:36;;;;;;;16.30;5.35;;;;;;;21.13;55.43;101745.94;5091493;28;20048;-72
2022/08/27 03:51:13;;;;;;;10.48;5.03;;;;;;;21.27;54.96;101745.09;5091499;28;20119;-72
2022/08/27 03:53:41;;;;;;;8.10;5.25;;;;;;;21.17;55.17;101747.03;5091341;28;20431;-72
2022/08/27 03:56:07;;;;;;;9.95;5.18;;;;;;;20.97;55.90;101743.13;5091662;28;20036;-71
2022/08/27 03:58:34;;;;;;;12.45;5.05;;;;;;;21.07;55.49;101738.81;5091829;28;20074;-72
2022/08/27 04:01:37;;;;;;;13.50;6.05;;;;;;;21.11;55.46;101737.19;5090915;28;20125;-72
2022/08/27 04:04:03;;;;;;;9.23;5.00;;;;;;;21.20;55.20;101741.84;5083969;28;20186;-72
2022/08/27 04:06:28;;;;;;;12.63;5.60;;;;;;;21.36;54.67;101746.19;5089800;28;20055;-72
2022/08/27 04:08:54;;;;;;;12.10;5.82;;;;;;;21.26;55.13;101756.31;5087724;28;20133;-72
2022/08/27 04:11:20;;;;;;;13.23;5.18;;;;;;;21.36;54.72;101756.31;5088986;28;20043;-72
2022/08/27 04:13:46;;;;;;;26.33;7.18;;;;;;;21.46;54.16;101762.56;5091907;28;20052;-71
2022/08/27 04:16:11;;;;;;;11.02;5.78;;;;;;;21.37;54.23;101761.50;5091672;28;20087;-70
2022/08/27 04:18:37;;;;;;;16.30;6.13;;;;;;;21.35;54.25;101762.84;5092222;28;20065;-70
2022/08/27 04:21:08;;;;;;;12.68;5.43;;;;;;;21.35;54.49;101755.50;5091716;28;20032;-71
2022/08/27 04:23:33;;;;;;;10.88;5.65;;;;;;;21.04;55.42;101755.75;5092300;28;20033;-71
2022/08/27 04:25:59;;;;;;;12.40;5.50;;;;;;;21.21;54.87;101761.78;5092153;28;20043;-70
2022/08/27 04:28:25;;;;;;;12.13;5.93;;;;;;;21.31;54.51;101759.84;5092053;28;20028;-71
2022/08/27 04:30:50;;;;;;;14.20;5.60;;;;;;;21.34;54.38;101763.97;5091745;28;20043;-70
2022/08/27 04:33:15;;;;;;;9.13;5.00;;;;;;;21.30;54.48;101757.41;5091514;28;20028;-70
2022/08/27 04:35:42;;;;;;;16.48;6.45;;;;;;;21.24;55.03;101761.22;5091348;28;20036;-71
2022/08/27 04:38:07;;;;;;;20.10;6.50;;;;;;;21.27;54.83;101755.19;5091207;28;20040;-71
2022/08/27 04:43:19;;;;;;;13.85;5.28;;;;;;;21.30;54.61;101762.88;5093471;28;20078;-70
2022/08/27 04:45:46;;;;;;;6.55;5.32;;;;;;;21.17;55.00;101766.16;5094525;28;20483;-70
2022/08/27 04:48:15;;;;;;;10.02;6.13;;;;;;;21.28;54.30;101765.06;5095010;28;20032;-71
2022/08/27 04:50:41;;;;;;;8.98;4.90;;;;;;;21.22;54.75;101764.25;5095080;28;20093;-72
2022/08/27 04:53:08;;;;;;;10.65;5.50;;;;;;;21.29;54.66;101770.25;5094936;28;20047;-71
2022/08/27 04:55:39;;;;;;;12.25;5.78;;;;;;;21.29;54.73;101763.94;5094770;28;20538;-71
2022/08/27 04:58:04;;;;;;;7.50;5.22;;;;;;;21.26;54.53;101764.50;5095380;28;20024;-70
2022/08/27 05:00:33;;;;;;;13.27;6.60;;;;;;;21.30;54.70;101765.59;5094670;28;20039;-69
2022/08/27 05:02:58;;;;;;;10.52;4.97;;;;;;;21.24;54.71;101766.69;5094570;28;20046;-73
2022/08/27 05:05:27;;;;;;;11.07;6.28;;;;;;;21.14;54.95;101764.78;5094475;28;20028;-71
2022/08/27 05:07:52;;;;;;;14.00;5.85;;;;;;;21.18;54.94;101760.41;5094783;28;20039;-71
2022/08/27 05:10:18;;;;;;;12.25;6.10;;;;;;;21.19;55.10;101762.03;5094981;28;20090;-71
2022/08/27 05:12:43;;;;;;;11.25;6.97;;;;;;;21.34;54.60;101772.16;5094405;28;20059;-72
2022/08/27 05:15:09;;;;;;;13.57;6.45;;;;;;;21.41;54.31;101764.50;5092312;28;20524;-70
2022/08/27 05:17:34;;;;;;;9.32;4.95;;;;;;;21.38;54.61;101776.84;5092593;28;20040;-71
2022/08/27 05:20:04;;;;;;;8.38;5.68;;;;;;;21.60;54.34;101763.66;5090959;28;20046;-71
2022/08/27 05:22:30;;;;;;;12.60;5.93;;;;;;;21.82;53.68;101769.69;5077435;28;20028;-71
2022/08/27 05:24:55;;;;;;;8.07;4.90;;;;;;;21.78;53.78;101776.75;5065345;28;20040;-69
2022/08/27 05:27:20;;;;;;;10.07;5.05;;;;;;;21.72;53.25;101777.03;5080388;28;20053;-70
2022/08/27 05:29:46;;;;;;;8.68;4.97;;;;;;;21.70;53.56;101774.59;5085766;28;20029;-69
2022/08/27 05:32:12;;;;;;;16.38;5.88;;;;;;;22.00;53.31;101786.59;5082488;28;20036;-70
2022/08/27 05:34:37;;;;;;;10.43;4.53;;;;;;;22.20;52.70;101773.66;5085566;28;20031;-70
2022/08/27 05:37:03;;;;;;;9.15;5.07;;;;;;;22.07;52.99;101782.50;5085428;28;20028;-69
2022/08/27 05:39:28;;;;;;;8.75;4.72;;;;;;;22.01;53.26;101783.59;5083251;28;20028;-70
2022/08/27 05:41:56;;;;;;;9.13;4.57;;;;;;;21.92;53.31;101777.03;5083637;28;20081;-70
2022/08/27 05:44:21;;;;;;;14.30;5.50;;;;;;;21.92;53.42;101777.03;5084498;28;20085;-71
2022/08/27 05:46:47;;;;;;;13.32;4.30;;;;;;;22.13;52.82;101786.03;5082693;28;20033;-70
2022/08/27 05:49:13;;;;;;;11.63;5.70;;;;;;;22.12;53.04;101789.84;5083462;28;20024;-71
2022/08/27 05:51:39;;;;;;;12.82;4.60;;;;;;;22.19;53.06;101776.69;5078665;28;20481;-69
2022/08/27 05:54:07;;;;;;;10.85;4.95;;;;;;;22.19;52.31;101777.50;5087615;28;20028;-70
2022/08/27 05:56:34;;;;;;;6.35;3.40;;;;;;;22.05;52.97;101775.66;5083606;28;20634;-71
2022/08/27 06:01:49;;;;;;;4.97;3.35;;;;;;;22.22;52.36;101771.47;5081893;28;20499;-74
2022/08/27 06:04:16;;;;;;;8.65;3.30;;;;;;;22.67;51.38;101775.94;5074356;28;20032;-74
2022/08/27 06:06:43;;;;;;;7.75;3.10;;;;;;;22.70;50.54;101778.13;5079484;28;20028;-72
2022/08/27 06:09:11;;;;;;;5.95;3.15;;;;;;;22.57;50.69;101774.06;5093475;28;20039;-72
2022/08/27 06:11:37;;;;;;;10.35;3.40;;;;;;;22.86;50.20;101779.66;5093877;28;20067;-73
2022/08/27 06:14:04;;;;;;;8.63;3.10;;;;;;;23.06;49.43;101787.75;5088982;28;20039;-75
2022/08/27 06:16:29;;;;;;;5.97;2.58;;;;;;;22.88;50.19;101779.38;5062001;28;20056;-72
2022/08/27 06:18:58;;;;;;;6.20;2.63;;;;;;;23.00;49.99;101780.66;5074060;28;20016;-70
2022/08/27 06:21:24;;;;;;;9.82;3.00;;;;;;;23.18;49.36;101781.91;5072995;28;20044;-71
2022/08/27 06:23:50;;;;;;;13.00;2.85;;;;;;;22.30;51.25;101781.03;5084728;28;20051;-70
2022/08/27 06:26:18;;;;;;;8.15;3.05;;;;;;;23.08;49.21;101781.97;5083717;28;20522;-74
2022/08/27 06:28:43;;;;;;;4.82;2.15;;;;;;;22.59;50.48;101784.75;5088061;28;20055;-76
2022/08/27 06:31:22;;;;;;;6.45;2.75;;;;;;;22.97;49.27;101786.72;5092752;28;20486;-75
2022/08/27 06:33:50;;;;;;;6.35;2.47;;;;;;;23.07;49.43;101785.81;5093413;28;20036;-76
2022/08/27 06:36:18;;;;;;;4.45;1.98;;;;;;;23.07;48.91;101788.56;5093159;28;20127;-75
2022/08/27 06:38:44;;;;;;;6.82;2.72;;;;;;;22.78;49.93;101791.22;5093347;28;20032;-74
2022/08/27 06:41:13;;;;;;;12.02;2.97;;;;;;;23.41;48.91;101790.22;5083107;28;20056;-75
2022/08/27 06:43:40;;;;;;;6.53;2.50;;;;;;;23.30;49.06;101793.31;5072772;28;20048;-74
2022/08/27 06:46:08;;;;;;;5.78;2.95;;;;;;;23.21;49.09;101797.78;5072968;28;20121;-74
2022/08/27 06:48:34;;;;;;;4.93;2.42;;;;;;;23.05;49.45;101801.75;5091764;28;20047;-74
2022/08/27 06:51:05;;;;;;;8.95;2.50;;;;;;;23.06;48.69;101798.72;5092904;28;20032;-75
2022/08/27 06:53:30;;;;;;;4.90;1.95;;;;;;;23.11;48.76;101800.59;5092704;28;20078;-75
2022/08/27 06:55:56;;;;;;;3.33;1.90;;;;;;;22.93;48.51;101798.53;5092811;28;20024;-75
2022/08/27 06:58:21;;;;;;;9.00;2.17;;;;;;;23.31;48.29;101787.56;5093142;28;20028;-76
2022/08/27 07:00:46;;;;;;;7.68;1.73;;;;;;;23.47;47.78;101791.00;5079867;28;20048;-74
2022/08/27 07:03:12;;;;;;;4.25;2.35;;;;;;;23.26;48.85;101793.09;5092471;28;20036;-75
2022/08/27 07:05:39;;;;;;;6.05;2.20;;;;;;;23.55;48.02;101793.97;5092265;28;20142;-75
2022/08/27 07:08:06;;;;;;;12.60;2.60;;;;;;;23.72;47.72;101798.19;5092167;28;20488;-75
2022/08/27 07:10:31;;;;;;;7.80;2.33;;;;;;;23.75;47.59;101794.88;5092268;28;20036;-74
2022/08/27 07:12:58;;;;;;;5.88;1.90;;;;;;;23.59;48.15;101796.13;5074231;28;20050;-74
2022/08/27 07:15:24;;;;;;;5.13;1.42;;;;;;;24.18;46.38;101789.22;5091775;28;20142;-74
2022/08/27 07:17:49;;;;;;;5.68;2.00;;;;;;;23.55;47.60;101793.97;5092153;28;20107;-75
2022/08/27 07:20:16;;;;;;;6.38;1.80;;;;;;;23.67;47.81;101799.06;5073645;28;20114;-74
2022/08/27 07:22:44;;;;;;;7.43;1.77;;;;;;;24.43;45.76;101799.88;5074391;28;20024;-76
2022/08/27 07:25:12;;;;;;;10.15;1.65;;;;;;;22.86;48.97;101795.31;5093107;28;20032;-74
2022/08/27 07:27:38;;;;;;;8.93;1.90;;;;;;;23.06;48.90;101801.44;5092338;28;20036;-74
2022/08/27 07:30:06;;;;;;;7.72;1.65;;;;;;;23.89;47.02;101802.13;5092030;28;20373;-74
2022/08/27 07:32:32;;;;;;;5.07;1.50;;;;;;;24.35;45.87;101795.03;5091917;28;20040;-75
2022/08/27 07:34:58;;;;;;;4.38;1.42;;;;;;;24.83;45.17;101801.28;5092051;28;20518;-75
2022/08/27 07:37:23;;;;;;;5.68;1.88;;;;;;;23.85;47.07;101809.31;5092610;28;20089;-75
2022/08/27 07:39:49;;;;;;;5.50;1.20;;;;;;;23.81;46.52;101815.66;5074050;28;20090;-75
2022/08/27 07:44:58;;;;;;;3.60;1.50;;;;;;;24.93;43.97;101805.81;5081256;28;20043;-74
2022/08/27 07:47:24;;;;;;;8.60;1.42;;;;;;;23.97;46.44;101817.16;5072203;28;20400;-74
2022/08/27 07:49:49;;;;;;;6.72;1.33;;;;;;;24.53;45.01;101818.16;5084068;28;20036;-74
2022/08/27 07:52:16;;;;;;;10.57;2.10;;;;;;;25.15;44.54;101809.63;5081317;28;20024;-74
2022/08/27 07:54:41;;;;;;;3.38;1.05;;;;;;;25.17;43.75;101809.31;5086524;28;20077;-75
2022/08/27 07:57:08;;;;;;;6.00;1.38;;;;;;;25.75;42.04;101802.28;5087772;28;20040;-73
2022/08/27 07:59:34;;;;;;;9.38;1.55;;;;;;;25.61;41.81;101809.69;5086802;28;20030;-74
2022/08/27 08:01:59;;;;;;;5.68;1.00;;;;;;;25.90;40.78;101813.03;5085510;28;20044;-75
2022/08/27 08:04:26;;;;;;;6.93;1.13;;;;;;;25.23;41.74;101811.69;5088292;28;20503;-72
2022/08/27 08:06:52;;;;;;;4.35;1.10;;;;;;;25.89;41.05;101822.41;5056197;28;20082;-74
2022/08/27 08:09:18;;;;;;;2.75;1.10;;;;;;;26.02;39.95;101813.34;5079396;28;20105;-73
2022/08/27 08:11:43;;;;;;;6.53;1.50;;;;;;;26.63;39.07;101814.91;5081652;28;20035;-73
2022/08/27 08:14:09;;;;;;;8.40;1.35;;;;;;;26.43;39.52;101818.91;5079724;28;20107;-74
2022/08/27 08:16:34;;;;;;;8.30;1.77;;;;;;;26.35;39.55;101816.03;5081829;28;20510;-72
2022/08/27 08:19:00;;;;;;;13.18;1.40;;;;;;;25.77;40.51;101813.81;5084457;28;20032;-73
2022/08/27 08:21:26;;;;;;;10.57;1.55;;;;;;;26.20;39.61;101813.59;5083126;28;20051;-72
2022/08/27 08:23:52;;;;;;;8.35;1.30;;;;;;;26.38;38.75;101815.44;5082971;28;20609;-74
2022/08/27 08:26:17;;;;;;;5.15;1.33;;;;;;;26.58;38.37;101823.28;5085456;28;20044;-73
2022/08/27 08:28:44;;;;;;;8.02;1.33;;;;;;;25.39;41.30;101815.03;5083586;28;20035;-73
2022/08/27 08:31:09;;;;;;;4.00;1.42;;;;;;;25.43;41.32;101818.84;5086558;28;20457;-74
2022/08/27 08:33:36;;;;;;;2.92;1.00;;;;;;;25.75;40.75;101818.81;5083151;28;20121;-74
2022/08/27 08:36:11;;;;;;;6.15;1.13;;;;;;;25.90;40.50;101826.00;5074272;28;20032;-73
2022/08/27 08:38:37;;;;;;;6.55;1.38;;;;;;;25.69;41.04;101830.25;5086685;28;20038;-74
2022/08/27 08:41:06;;;;;;;7.60;1.17;;;;;;;25.41;41.53;101829.34;5095142;28;20048;-73
2022/08/27 08:43:41;;;;;;;6.07;1.95;;;;;;;25.10;42.64;101836.41;5094844;28;20024;-73
2022/08/27 08:46:21;;;;;;;3.60;1.58;;;;;;;26.58;40.07;101828.78;5095785;28;20051;-73
2022/08/27 08:48:50;;;;;;;3.42;1.13;;;;;;;27.30;38.35;101822.16;5094823;28;20032;-74
2022/08/27 08:51:28;;;;;;;4.53;1.05;;;;;;;27.04;38.12;101823.94;5094874;28;20157;-73
2022/08/27 08:54:09;;;;;;;7.22;1.30;;;;;;;27.29;37.25;101828.00;5094994;28;20094;-73
2022/08/27 08:57:14;;;;;;;10.63;2.17;;;;;;;27.93;36.77;101830.25;5095201;28;20059;-74
2022/08/27 08:59:46;;;;;;;3.70;1.15;;;;;;;28.03;35.54;101829.22;5031775;28;20045;-73
2022/08/27 09:02:13;;;;;;;8.55;2.22;;;;;;;26.92;38.18;101829.16;5021017;28;20127;-74
2022/08/27 09:04:41;;;;;;;6.53;1.05;;;;;;;26.41;38.97;101828.59;5012369;28;20149;-74
2022/08/27 09:07:34;;;;;;;9.43;1.73;;;;;;;26.18;39.49;101835.94;5012612;28;20046;-73
2022/08/27 09:10:12;;;;;;;5.18;0.82;;;;;;;26.31;38.05;101826.03;5012457;28;20129;-74
2022/08/27 09:12:38;;;;;;;6.07;1.10;;;;;;;26.55;36.63;101837.69;5012265;28;20431;-72
2022/08/27 09:15:21;;;;;;;6.32;1.60;;;;;;;26.49;38.56;101833.41;5011697;28;20074;-73
2022/08/27 09:17:47;;;;;;;8.30;1.27;;;;;;;27.11;36.57;101838.09;4992123;28;20046;-74
2022/08/27 09:20:16;;;;;;;5.63;1.20;;;;;;;26.14;38.87;101847.91;4992746;28;20549;-74
2022/08/27 09:23:07;;;;;;;5.22;1.45;;;;;;;25.63;40.04;101850.72;4992353;28;20037;-74
2022/08/27 09:25:39;;;;;;;4.35;1.30;;;;;;;26.95;37.30;101851.44;4992045;28;20081;-74
2022/08/27 09:31:07;;;;;;;8.32;1.75;;;;;;;27.29;37.44;101847.34;4991718;28;20077;-74
2022/08/27 09:33:33;;;;;;;9.00;1.50;;;;;;;27.45;36.51;101843.94;4992319;28;20441;-74
2022/08/27 09:36:07;;;;;;;4.85;1.52;;;;;;;28.07;35.89;101838.50;5009798;28;20116;-74
2022/08/27 09:38:33;;;;;;;7.72;1.60;;;;;;;28.55;35.85;101840.16;5073820;28;20041;-74
2022/08/27 09:41:04;;;;;;;6.38;1.30;;;;;;;28.78;34.73;101837.25;5073992;28;20489;-73
2022/08/27 09:43:33;;;;;;;3.42;1.27;;;;;;;27.62;36.35;101838.53;5073331;28;20036;-73
2022/08/27 09:46:03;;;;;;;3.58;1.63;;;;;;;28.61;34.99;101832.53;5074113;28;20024;-74
2022/08/27 09:48:34;;;;;;;8.20;1.40;;;;;;;27.85;36.03;101827.44;5073381;28;20392;-74
2022/08/27 09:51:05;;;;;;;6.60;1.60;;;;;;;28.83;34.21;101829.63;5073366;28;20033;-74
2022/08/27 09:53:51;;;;;;;9.10;2.42;;;;;;;28.25;35.86;101829.94;5075895;28;20131;-74
2022/08/27 09:56:30;;;;;;;8.80;1.83;;;;;;;28.39;35.51;101833.41;5083360;28;20041;-74
2022/08/27 09:59:09;;;;;;;9.98;1.08;;;;;;;27.75;36.85;101842.34;5085453;28;20116;-75
2022/08/27 10:01:47;;;;;;;7.18;1.40;;;;;;;27.66;36.79;101841.47;5085770;28;20400;-75
2022/08/27 10:04:15;;;;;;;6.28;1.17;;;;;;;27.62;36.82;101844.03;5093994;28;20032;-75
2022/08/27 10:06:47;;;;;;;9.43;1.55;;;;;;;27.02;38.07;101834.47;5093876;28;20044;-75
2022/08/27 10:09:19;;;;;;;5.03;1.17;;;;;;;27.17;37.50;101839.63;5093696;28;20059;-74
2022/08/27 10:11:53;;;;;;;4.10;1.15;;;;;;;28.19;36.70;101838.69;5093873;28;20024;-75
2022/08/27 10:14:43;;;;;;;5.88;1.50;;;;;;;29.09;34.64;101826.88;5093462;28;20078;-75
2022/08/27 10:17:16;;;;;;;4.97;1.27;;;;;;;28.64;35.24;101840.97;5089429;28;20036;-76
2022/08/27 10:20:18;;;;;;;11.40;1.60;;;;;;;28.65;34.37;101847.34;5068902;28;20023;-74
2022/08/27 10:23:09;;;;;;;4.78;1.10;;;;;;;28.16;35.66;101840.16;5082942;28;20044;-74
2022/08/27 10:25:51;;;;;;;9.60;1.20;;;;;;;28.20;36.21;101837.56;5082054;28;20029;-74
2022/08/27 10:28:22;;;;;;;6.05;1.42;;;;;;;29.15;34.28;101831.94;5080399;28;20032;-75
2022/08/27 10:31:16;;;;;;;7.13;1.60;;;;;;;28.80;35.41;101840.50;5082574;28;20064;-76
2022/08/27 10:34:12;;;;;;;5.40;1.50;;;;;;;29.66;33.69;101824.75;5083351;28;20037;-75
2022/08/27 10:37:07;;;;;;;8.85;1.75;;;;;;;28.99;32.49;101829.97;5082981;28;20559;-76
2022/08/27 10:39:32;;;;;;;5.13;1.10;;;;;;;29.62;30.68;101832.09;5003932;28;20061;-74
2022/08/27 10:42:16;;;;;;;2.72;0.82;;;;;;;28.75;32.45;101830.44;5000087;28;20121;-75
2022/08/27 10:44:50;;;;;;;12.10;1.70;;;;;;;28.25;34.01;101846.53;5010068;28;20049;-74
2022/08/27 10:47:33;;;;;;;6.65;1.33;;;;;;;29.01;32.66;101830.47;5010257;28;20062;-75
2022/08/27 10:50:02;;;;;;;7.75;1.30;;;;;;;27.86;34.24;101834.59;5010165;28;20161;-74
2022/08/27 10:52:35;;;;;;;4.50;0.82;;;;;;;27.45;34.84;101838.41;5009613;28;20493;-74
2022/08/27 10:55:25;;;;;;;4.40;1.58;;;;;;;28.30;33.66;101835.34;5003563;28;20156;-75
2022/08/27 10:58:12;;;;;;;3.55;0.90;;;;;;;28.20;34.41;101841.16;5001701;28;20049;-74
2022/08/27 11:00:56;;;;;;;9.68;1.63;;;;;;;28.60;33.37;101833.63;5010580;28;20041;-75
2022/08/27 11:03:43;;;;;;;7.50;1.20;;;;;;;28.17;34.49;101840.94;5009743;28;20549;-76
2022/08/27 11:06:20;;;;;;;10.38;1.23;;;;;;;29.08;33.90;101836.31;5010187;28;20482;-75
2022/08/27 11:08:58;;;;;;;5.07;1.30;;;;;;;29.50;32.33;101833.53;5010262;28;20046;-74
2022/08/27 11:11:33;;;;;;;6.70;1.10;;;;;;;29.83;32.36;101839.41;5010250;28;20100;-75
2022/08/27 11:14:00;;;;;;;6.70;1.38;;;;;;;30.11;32.43;101834.25;5009676;28;20092;-75
2022/08/27 11:16:36;;;;;;;7.90;1.52;;;;;;;28.67;34.06;101831.22;5045118;28;20052;-75
2022/08/27 11:19:10;;;;;;;8.93;1.67;;;;;;;28.48;34.70;101837.00;5087579;28;20028;-74
2022/08/27 11:21:46;;;;;;;8.93;2.22;;;;;;;28.64;34.31;101834.63;5092621;28;20067;-75
2022/08/27 11:24:55;;;;;;;5.28;1.23;;;;;;;28.43;34.63;101833.56;5072073;28;20039;-75
2022/08/27 11:27:24;;;;;;;4.78;1.25;;;;;;;28.55;35.16;101837.41;4990444;28;20042;-74
2022/08/27 11:30:01;;;;;;;6.75;1.23;;;;;;;28.36;35.24;101830.47;5009429;28;20077;-75
2022/08/27 11:32:31;;;;;;;3.53;1.30;;;;;;;28.98;34.25;101823.63;5009393;28;20037;-74
2022/08/27 11:34:59;;;;;;;;;;;;;;;28.85;34.46;101829.31;5010220;28;20065;-75
2022/08/27 11:37:54;;;;;;;6.65;0.95;;;;;;;28.16;35.79;101831.88;5009539;28;19913;-74
2022/08/27 11:40:19;;;;;;;5.15;1.33;;;;;;;28.21;34.96;101828.13;4951557;29;20047;-76
2022/08/27 11:42:50;;;;;;;13.38;1.13;;;;;;;27.81;36.24;101830.84;4951596;29;20154;-74
2022/08/27 11:45:18;;;;;;;5.22;1.55;;;;;;;27.58;35.59;101820.13;4951207;29;20126;-75